Time;durP1;ratioP1;P1;durP2;ratioP2;P2;SDS_P1;SDS_P2;PMS_P1;PMS_P2;Temp;Humidity;BMP_temperature;BMP_pressure;BME280_temperature;BME280_humidity;BME280_pressure;Samples;Min_cycle;Max_cycle;Signal;HPM_P1;HPM_P2
2023/09/24 00:01:12;;;;;;;4.97;1.10;;;;;;;16.42;60.90;101243.63;5081545;28;20028;-70
2023/09/24 00:03:38;;;;;;;2.83;1.00;;;;;;;16.51;61.71;101246.84;5080056;28;20094;-70
2023/09/24 00:06:06;;;;;;;5.95;1.35;;;;;;;16.55;63.05;101253.47;5080317;28;20060;-70
2023/09/24 00:08:32;;;;;;;5.65;0.85;;;;;;;16.36;63.20;101243.72;5068855;28;20081;-69
2023/09/24 00:10:58;;;;;;;4.05;0.80;;;;;;;16.40;62.39;101262.03;5081473;28;20032;-69
2023/09/24 00:13:24;;;;;;;3.53;0.90;;;;;;;16.32;60.70;101256.06;5046970;28;20097;-69
2023/09/24 00:15:51;;;;;;;3.22;0.95;;;;;;;16.48;60.31;101263.59;5048287;28;20077;-69
2023/09/24 00:18:20;;;;;;;6.45;1.40;;;;;;;16.42;59.09;101267.22;5061847;28;20111;-70
2023/09/24 00:20:46;;;;;;;3.47;1.00;;;;;;;16.51;58.97;101273.19;5079826;28;20422;-69
2023/09/24 00:23:12;;;;;;;4.88;1.05;;;;;;;16.40;60.05;101264.75;5064547;28;20082;-69
2023/09/24 00:25:37;;;;;;;5.55;1.60;;;;;;;16.48;60.68;101274.47;5043270;28;20033;-70
2023/09/24 00:28:04;;;;;;;5.07;1.50;;;;;;;16.54;63.07;101283.59;5045678;28;20036;-69
2023/09/24 00:30:31;;;;;;;7.30;1.50;;;;;;;16.54;64.42;101273.56;5062269;28;20094;-69
2023/09/24 00:32:58;;;;;;;6.82;1.20;;;;;;;16.69;64.90;101286.78;5026371;28;20476;-71
2023/09/24 00:35:23;;;;;;;8.73;1.48;;;;;;;16.53;64.16;101282.78;5043126;28;20037;-70
2023/09/24 00:37:48;;;;;;;5.07;1.30;;;;;;;16.48;64.08;101292.66;5079573;28;20444;-70
2023/09/24 00:40:14;;;;;;;5.35;1.33;;;;;;;16.55;63.88;101282.53;5063181;28;20036;-70
2023/09/24 00:42:39;;;;;;;6.40;1.63;;;;;;;16.47;64.67;101289.13;5079739;28;20056;-69
2023/09/24 00:45:10;;;;;;;7.95;1.60;;;;;;;16.41;65.07;101282.69;5079615;28;20530;-70
2023/09/24 00:47:37;;;;;;;6.57;1.42;;;;;;;16.53;64.83;101295.53;5067227;28;20037;-70
2023/09/24 00:50:04;;;;;;;5.80;1.40;;;;;;;16.52;63.88;101299.28;5062276;28;20438;-70
2023/09/24 00:52:30;;;;;;;6.60;1.40;;;;;;;16.44;63.50;101290.41;5079810;28;20032;-69
2023/09/24 00:54:57;;;;;;;8.68;1.75;;;;;;;16.59;64.08;101306.34;5080085;28;20039;-70
2023/09/24 00:57:26;;;;;;;8.88;1.77;;;;;;;16.49;63.93;101305.19;5045081;28;20028;-70
2023/09/24 00:59:52;;;;;;;9.13;1.75;;;;;;;16.48;63.88;101300.81;5062431;28;20068;-70
2023/09/24 01:02:17;;;;;;;6.80;1.58;;;;;;;16.45;63.27;101311.06;5061989;28;20050;-70
2023/09/24 01:04:45;;;;;;;7.03;1.60;;;;;;;16.40;62.99;101281.03;5044969;28;20070;-70
2023/09/24 01:07:10;;;;;;;7.15;1.88;;;;;;;16.64;63.23;101313.78;5079960;28;20027;-70
2023/09/24 01:09:36;;;;;;;9.95;2.28;;;;;;;16.56;64.28;101312.22;5079685;28;20020;-70
2023/09/24 01:12:03;;;;;;;11.23;2.00;;;;;;;16.59;62.40;101319.91;5073878;28;20029;-69
2023/09/24 01:14:29;;;;;;;6.85;1.60;;;;;;;16.52;61.94;101313.69;5081465;28;20035;-69
2023/09/24 01:16:54;;;;;;;4.57;1.10;;;;;;;16.49;61.32;101319.63;5081054;28;20028;-70
2023/09/24 01:19:21;;;;;;;6.45;1.70;;;;;;;16.50;60.65;101325.88;5076905;28;20115;-70
2023/09/24 01:21:50;;;;;;;5.03;1.38;;;;;;;16.49;60.85;101326.91;5078645;28;20021;-70
2023/09/24 01:24:15;;;;;;;8.05;1.58;;;;;;;16.43;60.81;101307.75;5078260;28;20035;-70
2023/09/24 01:26:41;;;;;;;5.03;1.25;;;;;;;16.43;61.36;101328.66;5067583;28;20757;-70
2023/09/24 01:29:09;;;;;;;6.40;1.20;;;;;;;16.40;61.56;101315.53;5078519;28;20028;-70
2023/09/24 01:31:36;;;;;;;6.80;1.65;;;;;;;16.51;61.22;101339.22;5044948;28;20029;-70
2023/09/24 01:34:02;;;;;;;6.50;1.67;;;;;;;16.60;60.64;101335.16;5079187;28;20028;-71
2023/09/24 01:36:27;;;;;;;10.48;1.80;;;;;;;16.65;61.03;101345.31;5058811;28;20028;-70
2023/09/24 01:38:53;;;;;;;4.28;1.33;;;;;;;16.66;60.97;101341.59;5080078;28;20094;-69
2023/09/24 01:41:19;;;;;;;8.02;1.50;;;;;;;16.59;60.66;101346.25;5063512;28;20102;-69
2023/09/24 01:43:46;;;;;;;5.43;1.58;;;;;;;16.38;60.66;101318.44;5081241;28;20024;-70
2023/09/24 01:46:15;;;;;;;6.70;1.70;;;;;;;16.57;60.23;101348.38;5063321;28;20074;-70
2023/09/24 01:48:40;;;;;;;7.18;1.70;;;;;;;16.58;59.69;101350.00;5080741;28;20029;-70
2023/09/24 01:51:12;;;;;;;9.30;1.73;;;;;;;16.57;58.85;101348.38;5062461;28;20115;-70
2023/09/24 01:53:38;;;;;;;9.25;1.42;;;;;;;16.49;59.80;101345.91;5063053;28;20025;-70
2023/09/24 01:56:07;;;;;;;7.82;1.85;;;;;;;16.49;59.99;101335.06;5062866;28;20037;-70
2023/09/24 01:58:33;;;;;;;4.75;1.30;;;;;;;16.36;60.73;101350.47;5080267;28;20024;-70
2023/09/24 02:00:59;;;;;;;10.73;1.80;;;;;;;16.54;60.22;101348.81;5062413;28;20380;-70
2023/09/24 02:03:24;;;;;;;8.07;1.73;;;;;;;16.60;59.76;101347.91;5081332;28;20024;-70
2023/09/24 02:05:49;;;;;;;6.50;1.60;;;;;;;16.53;58.43;101347.16;5080354;28;20049;-70
2023/09/24 02:08:15;;;;;;;6.32;1.55;;;;;;;16.38;59.32;101325.78;5063852;28;20064;-70
2023/09/24 02:10:42;;;;;;;6.18;1.25;;;;;;;16.56;60.40;101363.00;5060404;28;20429;-70
2023/09/24 02:13:08;;;;;;;6.53;1.30;;;;;;;16.53;60.34;101369.72;5076184;28;20055;-70
2023/09/24 02:15:34;;;;;;;5.55;1.02;;;;;;;16.43;60.89;101375.66;5059667;28;20074;-70
2023/09/24 02:18:00;;;;;;;6.47;1.63;;;;;;;16.43;61.66;101369.41;5064224;28;20020;-70
2023/09/24 02:20:31;;;;;;;8.05;1.60;;;;;;;16.40;62.13;101380.72;5065948;28;20043;-70
2023/09/24 02:22:59;;;;;;;5.63;1.52;;;;;;;16.31;61.88;101353.00;5068799;28;20471;-70
2023/09/24 02:25:26;;;;;;;7.22;1.10;;;;;;;16.33;61.55;101386.22;5080943;28;20032;-70
2023/09/24 02:27:52;;;;;;;9.55;1.77;;;;;;;16.51;61.40;101390.84;5067359;28;20024;-70
2023/09/24 02:30:22;;;;;;;6.15;1.23;;;;;;;16.43;62.51;101386.53;5081073;28;20024;-70
2023/09/24 02:32:48;;;;;;;9.30;1.92;;;;;;;16.48;63.84;101393.16;5064308;28;20020;-70
2023/09/24 02:35:14;;;;;;;7.72;1.48;;;;;;;16.51;63.95;101392.72;5061628;28;20154;-70
2023/09/24 02:37:44;;;;;;;9.23;1.77;;;;;;;16.50;63.12;101402.75;5075534;28;20391;-70
2023/09/24 02:40:28;;;;;;;6.35;1.40;;;;;;;16.34;62.26;101397.91;5079059;28;20033;-70
2023/09/24 02:42:56;;;;;;;6.40;1.40;;;;;;;16.39;61.70;101400.75;5078210;28;20102;-70
2023/09/24 02:45:22;;;;;;;7.05;1.40;;;;;;;16.49;62.75;101409.25;5061411;28;20028;-70
2023/09/24 02:47:50;;;;;;;6.50;1.30;;;;;;;16.50;62.23;101400.03;5078168;28;20072;-70
2023/09/24 02:50:22;;;;;;;3.78;1.10;;;;;;;16.45;63.34;101414.28;5080044;28;20127;-71
2023/09/24 02:52:48;;;;;;;8.50;1.60;;;;;;;16.39;63.40;101422.50;5079994;28;20024;-70
2023/09/24 02:55:15;;;;;;;4.28;0.98;;;;;;;16.37;63.91;101439.03;5079880;28;20078;-70
2023/09/24 02:57:42;;;;;;;3.63;0.90;;;;;;;16.40;63.87;101425.00;5079502;28;20024;-70
2023/09/24 03:00:16;;;;;;;6.45;1.00;;;;;;;16.20;63.87;101435.19;5079296;28;20462;-71
2023/09/24 03:02:42;;;;;;;7.20;1.13;;;;;;;16.29;65.99;101431.16;5084591;28;20402;-70
2023/09/24 03:05:11;;;;;;;9.50;1.50;;;;;;;16.34;67.88;101431.31;5051584;28;20136;-71
2023/09/24 03:07:40;;;;;;;6.13;1.02;;;;;;;16.30;67.15;101410.28;5066932;28;20028;-70
2023/09/24 03:10:09;;;;;;;6.10;1.08;;;;;;;16.38;67.19;101404.53;5067048;28;20093;-70
2023/09/24 03:12:34;;;;;;;3.90;0.88;;;;;;;16.12;66.09;101401.00;5066721;28;20032;-70
2023/09/24 03:15:01;;;;;;;8.27;1.25;;;;;;;16.28;65.25;101439.53;5061603;28;20038;-70
2023/09/24 03:17:27;;;;;;;6.00;1.40;;;;;;;16.26;64.63;101439.75;5064698;28;20023;-70
2023/09/24 03:19:53;;;;;;;4.35;1.33;;;;;;;16.28;64.26;101448.50;5091157;28;20031;-70
2023/09/24 03:22:20;;;;;;;7.18;1.20;;;;;;;16.15;65.95;101440.44;5037335;28;20028;-70
2023/09/24 03:24:47;;;;;;;9.60;1.30;;;;;;;16.23;66.42;101445.63;5084863;28;20521;-70
2023/09/24 03:27:14;;;;;;;5.15;1.15;;;;;;;16.02;66.49;101440.56;5066650;28;20040;-70
2023/09/24 03:29:40;;;;;;;5.00;1.17;;;;;;;16.23;67.20;101447.50;5084017;28;20029;-70
2023/09/24 03:32:05;;;;;;;5.35;1.42;;;;;;;16.06;69.62;101431.75;5080650;28;20037;-70
2023/09/24 03:34:30;;;;;;;8.95;1.40;;;;;;;16.16;69.64;101453.00;5050295;28;20115;-70
2023/09/24 03:36:56;;;;;;;5.53;1.42;;;;;;;16.22;69.62;101454.81;5064264;28;20086;-70
2023/09/24 03:39:21;;;;;;;5.50;1.42;;;;;;;16.21;68.88;101453.16;5064628;28;20031;-70
2023/09/24 03:41:46;;;;;;;7.35;1.35;;;;;;;16.06;68.95;101458.91;5080185;28;20041;-71
2023/09/24 03:44:12;;;;;;;4.47;1.17;;;;;;;16.18;67.82;101469.88;5110032;28;20115;-70
2023/09/24 03:46:38;;;;;;;8.38;1.40;;;;;;;16.12;68.04;101460.72;5066120;28;20074;-71
2023/09/24 03:49:03;;;;;;;5.30;1.08;;;;;;;15.94;71.00;101475.06;5081328;28;20032;-71
2023/09/24 03:51:28;;;;;;;4.53;1.05;;;;;;;16.09;72.81;101482.91;5058017;28;20036;-70
2023/09/24 03:53:54;;;;;;;9.70;1.48;;;;;;;16.10;72.34;101465.56;5063527;28;20028;-70
2023/09/24 03:56:20;;;;;;;6.63;1.50;;;;;;;16.20;71.96;101484.09;5084695;28;20032;-70
2023/09/24 03:58:45;;;;;;;7.10;1.33;;;;;;;15.95;72.21;101486.72;5081762;28;20052;-70
2023/09/24 04:01:11;;;;;;;5.47;1.33;;;;;;;16.12;70.98;101498.72;5084461;28;20158;-70
2023/09/24 04:03:37;;;;;;;6.45;1.45;;;;;;;16.13;70.19;101502.31;5066637;28;20044;-70
2023/09/24 04:06:12;;;;;;;7.13;1.20;;;;;;;16.21;69.79;101502.84;5083488;28;20041;-71
2023/09/24 04:08:37;;;;;;;7.88;1.40;;;;;;;16.25;70.06;101505.13;5066123;28;20031;-70
2023/09/24 04:11:08;;;;;;;7.43;1.30;;;;;;;15.94;72.62;101499.47;5084427;28;20032;-70
2023/09/24 04:13:34;;;;;;;5.32;1.30;;;;;;;16.07;72.85;101514.88;5065676;28;20028;-70
2023/09/24 04:16:09;;;;;;;10.10;1.55;;;;;;;15.90;72.44;101509.13;5084111;28;20028;-70
2023/09/24 04:18:35;;;;;;;6.25;1.23;;;;;;;15.90;71.49;101522.69;5084525;28;20021;-70
2023/09/24 04:21:01;;;;;;;6.88;1.38;;;;;;;16.03;70.47;101521.78;5084513;28;20592;-70
2023/09/24 04:23:27;;;;;;;7.03;1.42;;;;;;;16.04;69.77;101530.75;5057522;28;20029;-70
2023/09/24 04:25:54;;;;;;;3.80;1.15;;;;;;;15.91;69.11;101507.22;5083508;28;20048;-70
2023/09/24 04:28:19;;;;;;;6.38;1.30;;;;;;;16.11;69.53;101534.25;5084445;28;20020;-70
2023/09/24 04:30:46;;;;;;;9.32;1.30;;;;;;;16.11;69.77;101520.69;5082872;28;20116;-69
2023/09/24 04:33:12;;;;;;;6.22;1.15;;;;;;;15.99;69.45;101547.69;5082733;28;20063;-70
2023/09/24 04:35:37;;;;;;;9.55;2.00;;;;;;;16.09;68.18;101539.91;5081494;28;20403;-70
2023/09/24 04:38:03;;;;;;;8.43;1.45;;;;;;;16.02;67.91;101554.56;5082813;28;20048;-70
2023/09/24 04:40:28;;;;;;;7.20;1.27;;;;;;;15.96;68.91;101559.00;5082290;28;20158;-71
2023/09/24 04:42:54;;;;;;;7.70;1.25;;;;;;;16.12;68.91;101563.91;5096737;28;20040;-70
2023/09/24 04:45:20;;;;;;;3.83;1.33;;;;;;;15.95;67.57;101569.00;5081976;28;20063;-71
2023/09/24 04:47:46;;;;;;;4.43;1.33;;;;;;;15.81;66.31;101556.53;5080359;28;20068;-71
2023/09/24 04:50:15;;;;;;;5.78;1.30;;;;;;;15.99;66.82;101566.69;5080431;28;20097;-68
2023/09/24 04:52:42;;;;;;;8.05;1.83;;;;;;;16.16;67.63;101569.75;5098190;28;20040;-69
2023/09/24 04:55:08;;;;;;;4.03;1.40;;;;;;;16.07;66.98;101568.34;5083474;28;20060;-70
2023/09/24 04:57:34;;;;;;;6.40;1.60;;;;;;;15.88;66.93;101557.34;5065528;28;20024;-69
2023/09/24 04:59:59;;;;;;;5.57;1.90;;;;;;;16.17;68.13;101590.41;5079716;28;20037;-69
2023/09/24 05:02:25;;;;;;;5.75;1.10;;;;;;;16.05;67.14;101579.38;5098827;28;20117;-70
2023/09/24 05:04:52;;;;;;;5.53;1.23;;;;;;;16.08;66.48;101591.72;5067794;28;20044;-72
2023/09/24 05:07:18;;;;;;;7.18;1.63;;;;;;;16.14;66.50;101599.81;5084346;28;20062;-71
2023/09/24 05:09:44;;;;;;;9.60;1.83;;;;;;;16.03;66.85;101597.78;5083718;28;20103;-73
2023/09/24 05:12:10;;;;;;;8.48;1.80;;;;;;;16.15;65.17;101595.22;5066809;28;20096;-71
2023/09/24 05:14:36;;;;;;;8.75;1.58;;;;;;;16.34;65.88;101610.56;5084763;28;20032;-70
2023/09/24 05:17:01;;;;;;;5.22;1.67;;;;;;;16.21;64.98;101616.06;5087140;28;20021;-68
2023/09/24 05:19:27;;;;;;;6.03;1.27;;;;;;;16.14;63.76;101613.38;5088808;28;20012;-71
2023/09/24 05:21:52;;;;;;;6.72;1.40;;;;;;;16.07;64.46;101609.06;5076904;28;20044;-75
2023/09/24 05:24:18;;;;;;;5.72;1.58;;;;;;;16.25;63.72;101628.16;5042974;28;20032;-71
2023/09/24 05:26:44;;;;;;;5.88;1.13;;;;;;;16.26;63.78;101637.13;5086014;28;20063;-73
2023/09/24 05:29:10;;;;;;;5.63;1.27;;;;;;;16.08;65.27;101621.56;5056465;28;20035;-71
2023/09/24 05:31:35;;;;;;;3.95;1.20;;;;;;;16.26;64.28;101640.72;5061824;28;20479;-71
2023/09/24 05:34:03;;;;;;;7.47;1.85;;;;;;;16.27;64.26;101646.97;5064589;28;20398;-70
2023/09/24 05:36:28;;;;;;;5.15;1.52;;;;;;;16.11;64.37;101645.56;5082961;28;20028;-72
2023/09/24 05:38:53;;;;;;;5.80;1.60;;;;;;;16.18;63.69;101655.34;5063484;28;20092;-71
2023/09/24 05:41:19;;;;;;;6.40;1.60;;;;;;;16.16;61.57;101662.06;5081244;28;20067;-70
2023/09/24 05:43:45;;;;;;;6.55;1.60;;;;;;;16.10;60.47;101665.63;5062978;28;20039;-70
2023/09/24 05:46:14;;;;;;;6.68;1.55;;;;;;;16.14;61.64;101675.84;5079693;28;20025;-70
2023/09/24 05:48:39;;;;;;;4.97;1.48;;;;;;;16.17;63.41;101659.13;5076225;28;20113;-70
2023/09/24 05:51:05;;;;;;;5.50;1.38;;;;;;;16.32;63.57;101685.16;5077335;28;20028;-69
2023/09/24 05:53:30;;;;;;;7.40;1.40;;;;;;;16.40;62.13;101683.03;5069223;28;20103;-70
2023/09/24 05:55:56;;;;;;;4.82;1.30;;;;;;;16.47;62.14;101684.91;5082864;28;20024;-70
2023/09/24 05:58:22;;;;;;;6.40;1.40;;;;;;;16.45;63.97;101687.81;5057557;28;20040;-70
2023/09/24 06:00:48;;;;;;;6.97;1.25;;;;;;;16.57;64.50;101698.84;5065843;28;20029;-70
2023/09/24 06:03:14;;;;;;;4.30;1.20;;;;;;;16.45;63.37;101696.78;5042434;28;20376;-70
2023/09/24 06:05:40;;;;;;;4.40;1.17;;;;;;;16.43;62.55;101700.81;5060476;28;20056;-70
2023/09/24 06:08:06;;;;;;;6.15;1.17;;;;;;;16.56;61.59;101705.34;5060939;28;20506;-70
2023/09/24 06:10:34;;;;;;;6.60;1.80;;;;;;;16.68;61.54;101704.41;5060561;28;20048;-70
2023/09/24 06:13:00;;;;;;;4.00;1.10;;;;;;;16.45;61.50;101699.50;5060461;28;20452;-70
2023/09/24 06:15:26;;;;;;;5.32;1.15;;;;;;;16.45;61.59;101688.66;5042721;28;20035;-70
2023/09/24 06:17:51;;;;;;;2.65;1.15;;;;;;;16.87;61.82;101723.59;5060551;28;20031;-70
2023/09/24 06:20:17;;;;;;;3.60;0.90;;;;;;;16.71;61.95;101719.47;5075534;28;20052;-70
2023/09/24 06:22:45;;;;;;;6.45;1.33;;;;;;;16.83;61.92;101714.22;5076289;28;20064;-70
2023/09/24 06:25:12;;;;;;;4.60;1.02;;;;;;;16.71;62.39;101710.47;5058592;28;20097;-70
2023/09/24 06:27:40;;;;;;;5.88;1.40;;;;;;;16.72;63.04;101713.00;5073812;28;20025;-70
2023/09/24 06:30:08;;;;;;;4.13;1.10;;;;;;;16.65;61.35;101720.31;5058788;28;20029;-70
2023/09/24 06:32:33;;;;;;;7.68;1.50;;;;;;;16.64;61.98;101713.22;5058492;28;20030;-70
2023/09/24 06:34:59;;;;;;;5.70;1.80;;;;;;;16.64;63.03;101729.53;5058837;28;20028;-70
2023/09/24 06:37:24;;;;;;;3.97;1.05;;;;;;;16.57;62.34;101724.13;5058285;28;20032;-70
2023/09/24 06:39:50;;;;;;;11.98;1.70;;;;;;;16.85;60.58;101742.00;5075305;28;20383;-70
2023/09/24 06:42:15;;;;;;;9.27;2.15;;;;;;;16.87;60.49;101745.34;5073769;28;20091;-70
2023/09/24 06:44:40;;;;;;;5.10;1.48;;;;;;;16.80;61.80;101739.94;5023675;28;20047;-70
2023/09/24 06:47:06;;;;;;;4.25;1.45;;;;;;;16.96;61.89;101751.34;5043172;28;20051;-70
2023/09/24 06:49:32;;;;;;;5.22;1.48;;;;;;;16.81;63.18;101752.47;5037991;28;20538;-70
2023/09/24 06:51:57;;;;;;;9.18;1.73;;;;;;;16.77;63.03;101751.25;5056630;28;20097;-70
2023/09/24 06:54:22;;;;;;;8.07;1.90;;;;;;;16.90;63.05;101766.66;5037101;28;20037;-70
2023/09/24 06:56:48;;;;;;;9.10;1.88;;;;;;;17.14;62.65;101768.59;5058085;28;20044;-70
2023/09/24 06:59:13;;;;;;;9.30;2.13;;;;;;;17.07;61.29;101783.28;5059433;28;20072;-70
2023/09/24 07:01:39;;;;;;;8.73;1.80;;;;;;;17.03;60.49;101752.97;5040609;28;20046;-70
2023/09/24 07:04:05;;;;;;;6.18;1.55;;;;;;;16.89;60.74;101782.13;5055559;28;20025;-70
2023/09/24 07:06:31;;;;;;;5.93;1.60;;;;;;;17.10;60.49;101794.56;5053460;28;20029;-70
2023/09/24 07:08:58;;;;;;;7.13;1.52;;;;;;;17.12;60.49;101800.63;5056212;28;20037;-70
2023/09/24 07:11:33;;;;;;;4.25;1.50;;;;;;;17.09;60.01;101798.34;5073688;28;20112;-70
2023/09/24 07:13:58;;;;;;;;;;;;;;;17.17;60.48;101815.44;5040762;28;20052;-70
2023/09/24 07:16:26;;;;;;;11.10;2.80;;;;;;;17.06;62.10;101816.97;5041060;28;19919;-70
2023/09/24 07:18:53;;;;;;;5.40;1.80;;;;;;;17.07;62.29;101826.78;5058604;28;20173;-70
2023/09/24 07:21:24;;;;;;;6.68;1.80;;;;;;;16.90;62.15;101838.16;5059162;28;20032;-70
2023/09/24 07:23:51;;;;;;;6.20;1.70;;;;;;;16.65;61.31;101820.88;5058026;28;20116;-70
2023/09/24 07:26:17;;;;;;;3.85;1.42;;;;;;;16.55;62.54;101809.63;5059947;28;20025;-70
2023/09/24 07:28:43;;;;;;;7.10;2.10;;;;;;;16.91;62.19;101828.94;5061324;28;20108;-71
2023/09/24 07:31:21;;;;;;;8.60;2.10;;;;;;;16.96;62.59;101835.66;5076070;28;20061;-70
2023/09/24 07:33:51;;;;;;;8.07;2.20;;;;;;;16.88;61.81;101834.81;5042305;28;20025;-70
2023/09/24 07:36:17;;;;;;;6.68;1.80;;;;;;;16.87;61.86;101827.72;5057571;28;20036;-70
2023/09/24 07:38:43;;;;;;;8.60;2.72;;;;;;;17.22;61.55;101835.50;5036845;28;20025;-70
2023/09/24 07:41:09;;;;;;;8.85;2.95;;;;;;;17.17;62.08;101835.31;5040518;28;20115;-70
2023/09/24 07:43:39;;;;;;;12.43;2.60;;;;;;;17.18;61.42;101825.25;5054006;28;20047;-70
2023/09/24 07:46:06;;;;;;;5.85;2.10;;;;;;;17.53;61.05;101839.28;5057211;28;20025;-70
2023/09/24 07:48:32;;;;;;;7.43;2.28;;;;;;;17.61;60.74;101836.28;5063796;28;20511;-70
2023/09/24 07:50:58;;;;;;;10.10;2.42;;;;;;;17.58;60.57;101839.44;5044622;28;20044;-70
2023/09/24 07:53:24;;;;;;;8.40;2.10;;;;;;;17.64;60.35;101843.16;5062512;28;20032;-70
2023/09/24 07:56:09;;;;;;;10.57;2.15;;;;;;;17.58;61.44;101844.88;5076469;28;20045;-71
2023/09/24 07:58:37;;;;;;;7.90;2.17;;;;;;;17.96;61.16;101842.09;5062604;28;20024;-70
2023/09/24 08:01:13;;;;;;;8.82;2.95;;;;;;;17.98;60.00;101850.03;5076733;28;20040;-70
2023/09/24 08:03:40;;;;;;;8.85;2.47;;;;;;;17.72;59.35;101856.53;5042378;28;20071;-70
2023/09/24 08:06:06;;;;;;;7.63;2.17;;;;;;;17.79;57.72;101857.34;5060305;28;20044;-70
2023/09/24 08:08:34;;;;;;;9.27;2.70;;;;;;;17.75;57.30;101859.63;5042736;28;20082;-71
2023/09/24 08:11:00;;;;;;;11.43;2.97;;;;;;;17.94;56.39;101862.44;5060846;28;20033;-70
2023/09/24 08:13:25;;;;;;;8.57;2.67;;;;;;;17.97;56.22;101872.88;5060292;28;20094;-70
2023/09/24 08:15:51;;;;;;;7.30;2.20;;;;;;;17.91;56.47;101874.59;5060203;28;20487;-70
2023/09/24 08:18:17;;;;;;;8.05;2.55;;;;;;;17.82;57.22;101876.78;5042874;28;20032;-70
2023/09/24 08:20:44;;;;;;;10.02;2.65;;;;;;;17.81;57.46;101901.50;5042601;28;20033;-71
2023/09/24 08:23:09;;;;;;;11.02;3.00;;;;;;;17.93;56.56;101877.94;5060753;28;20036;-71
2023/09/24 08:25:35;;;;;;;7.93;2.90;;;;;;;18.10;55.95;101888.28;5043134;28;20036;-70
2023/09/24 08:28:02;;;;;;;6.80;2.38;;;;;;;18.13;55.67;101905.03;5060626;28;20029;-70
2023/09/24 08:30:30;;;;;;;10.98;3.67;;;;;;;18.04;55.59;101906.34;5060400;28;20037;-70
2023/09/24 08:32:55;;;;;;;7.57;2.95;;;;;;;18.20;54.58;101910.41;5060762;28;20033;-70
2023/09/24 08:35:21;;;;;;;7.80;3.05;;;;;;;18.13;54.38;101905.03;5059322;28;20028;-70
2023/09/24 08:37:46;;;;;;;7.93;2.97;;;;;;;18.18;54.73;101917.97;5058595;28;20029;-70
2023/09/24 08:40:12;;;;;;;9.13;3.17;;;;;;;18.14;55.16;101925.75;5042578;28;20114;-70
2023/09/24 08:42:38;;;;;;;9.57;3.00;;;;;;;18.27;54.56;101928.34;5039327;28;20037;-70
2023/09/24 08:45:14;;;;;;;7.80;2.70;;;;;;;18.14;54.00;101936.63;5055757;28;20033;-70
2023/09/24 08:47:41;;;;;;;10.57;3.15;;;;;;;17.98;54.47;101926.28;5058985;28;20041;-70
2023/09/24 08:50:08;;;;;;;8.77;3.00;;;;;;;18.06;54.73;101945.94;5058915;28;20032;-70
2023/09/24 08:52:39;;;;;;;9.43;3.05;;;;;;;18.25;55.00;101946.00;5041143;28;20025;-70
2023/09/24 08:55:06;;;;;;;7.03;2.95;;;;;;;18.35;55.13;101948.22;5059578;28;20025;-70
2023/09/24 08:57:35;;;;;;;11.18;3.10;;;;;;;18.45;55.37;101959.47;5041467;28;20116;-70
2023/09/24 09:00:04;;;;;;;11.15;3.10;;;;;;;18.45;55.14;101962.19;5056721;28;20021;-70
2023/09/24 09:02:30;;;;;;;9.63;3.47;;;;;;;18.47;55.03;101962.78;5060199;28;20028;-70
2023/09/24 09:04:56;;;;;;;12.40;3.15;;;;;;;18.58;55.27;101958.50;5041471;28;20045;-70
2023/09/24 09:07:21;;;;;;;8.60;3.03;;;;;;;18.52;55.41;101966.50;5059294;28;20033;-70
2023/09/24 09:09:59;;;;;;;8.88;3.00;;;;;;;18.47;55.34;101960.06;5039736;28;20052;-70
2023/09/24 09:12:26;;;;;;;12.52;3.25;;;;;;;18.43;56.27;101964.28;5071678;28;20401;-70
2023/09/24 09:14:53;;;;;;;7.40;3.20;;;;;;;18.30;56.55;101973.41;5059020;28;20055;-70
2023/09/24 09:17:19;;;;;;;11.48;3.60;;;;;;;18.26;56.58;101956.66;5041256;28;20021;-70
2023/09/24 09:19:53;;;;;;;10.30;3.53;;;;;;;18.39;56.96;101963.91;5040909;28;20032;-70
2023/09/24 09:22:24;;;;;;;9.27;3.40;;;;;;;18.68;56.72;101969.72;5059159;28;20017;-70
2023/09/24 09:25:07;;;;;;;11.57;3.55;;;;;;;18.53;57.39;101973.63;5040955;28;20505;-71
2023/09/24 09:27:39;;;;;;;11.52;3.60;;;;;;;18.64;57.96;101988.44;5040797;28;20090;-70
2023/09/24 09:30:15;;;;;;;12.65;4.03;;;;;;;18.71;57.93;101985.66;5041132;28;20041;-70
2023/09/24 09:32:45;;;;;;;9.13;3.40;;;;;;;18.67;57.99;101995.31;5041137;28;20032;-70
2023/09/24 09:35:12;;;;;;;14.52;4.25;;;;;;;18.52;57.55;101995.66;5024339;28;20064;-70
2023/09/24 09:37:42;;;;;;;9.23;3.60;;;;;;;18.57;57.14;101984.09;5040891;28;20584;-70
2023/09/24 09:40:09;;;;;;;12.98;3.88;;;;;;;18.27;57.53;101971.94;5058245;28;20060;-70
2023/09/24 09:42:37;;;;;;;11.77;4.65;;;;;;;18.52;57.16;101993.78;5073534;28;20029;-70
2023/09/24 09:45:07;;;;;;;9.52;3.78;;;;;;;18.52;57.26;101995.66;5058170;28;20036;-70
2023/09/24 09:47:37;;;;;;;13.35;3.92;;;;;;;18.35;57.35;102003.56;5058683;28;20028;-70
2023/09/24 09:50:04;;;;;;;10.32;3.70;;;;;;;18.43;57.26;102010.63;5073850;28;20025;-70
2023/09/24 09:52:37;;;;;;;12.50;4.05;;;;;;;18.55;56.96;102006.13;5073051;28;20509;-70
2023/09/24 09:55:04;;;;;;;12.80;3.80;;;;;;;18.61;55.48;102012.56;5035430;28;20029;-69
2023/09/24 09:57:33;;;;;;;11.65;4.43;;;;;;;18.77;54.76;102010.16;5041977;28;20017;-70
2023/09/24 10:00:01;;;;;;;10.55;4.60;;;;;;;18.81;54.83;102013.25;5060737;28;20028;-70
2023/09/24 10:02:30;;;;;;;8.40;4.40;;;;;;;18.86;54.63;102012.56;5060381;28;20028;-70
2023/09/24 10:04:57;;;;;;;9.40;4.05;;;;;;;18.75;54.80;101998.63;5075604;28;20045;-70
2023/09/24 10:07:24;;;;;;;11.40;4.22;;;;;;;18.98;54.51;102014.34;5060873;28;20033;-70
2023/09/24 10:09:50;;;;;;;11.02;4.07;;;;;;;19.04;54.33;102015.34;5060583;28;20572;-70
2023/09/24 10:12:36;;;;;;;9.30;3.70;;;;;;;19.16;54.19;102015.41;5058444;28;20024;-70
2023/09/24 10:15:26;;;;;;;10.40;4.28;;;;;;;19.24;53.86;102021.41;5056871;28;20096;-70
2023/09/24 10:18:08;;;;;;;10.82;3.85;;;;;;;19.23;54.17;102022.44;5057187;28;20089;-70
2023/09/24 10:20:48;;;;;;;10.85;3.90;;;;;;;18.96;53.53;101982.88;5053758;28;20031;-70
2023/09/24 10:23:29;;;;;;;12.52;4.03;;;;;;;19.43;53.02;102026.84;5061191;28;20032;-70
2023/09/24 10:26:00;;;;;;;12.07;4.47;;;;;;;19.28;53.23;102029.16;5062810;28;20021;-70
2023/09/24 10:28:51;;;;;;;13.05;4.75;;;;;;;19.53;52.99;102032.59;5043679;28;20039;-70
2023/09/24 10:31:20;;;;;;;12.02;4.43;;;;;;;19.55;53.06;102044.13;5058190;28;20044;-70
2023/09/24 10:33:59;;;;;;;10.65;4.47;;;;;;;19.58;52.77;102040.13;5040096;28;20344;-70
2023/09/24 10:36:30;;;;;;;10.48;3.65;;;;;;;19.59;53.54;102039.88;5072642;28;20440;-70
2023/09/24 10:39:11;;;;;;;10.88;3.63;;;;;;;19.48;52.89;102048.84;5072591;28;20162;-70
2023/09/24 10:42:09;;;;;;;9.00;3.80;;;;;;;19.30;51.75;102046.09;5057811;28;20017;-70
2023/09/24 10:44:35;;;;;;;10.30;4.03;;;;;;;19.33;51.88;102032.84;5057114;28;20100;-70
2023/09/24 10:47:23;;;;;;;8.73;3.65;;;;;;;19.45;52.19;102054.75;5055645;28;20577;-70
2023/09/24 10:49:49;;;;;;;11.43;4.22;;;;;;;19.36;52.18;102047.94;5039432;28;20100;-70
2023/09/24 10:52:16;;;;;;;13.85;4.30;;;;;;;19.51;52.09;102059.31;5056174;28;20033;-70
2023/09/24 10:54:46;;;;;;;11.02;4.25;;;;;;;19.66;51.75;102054.31;5038754;28;20044;-70
2023/09/24 10:57:23;;;;;;;11.77;4.13;;;;;;;19.62;51.69;102049.50;5057842;28;20051;-70
2023/09/24 10:59:48;;;;;;;10.82;4.07;;;;;;;19.65;51.30;102057.28;5039041;28;20677;-70
2023/09/24 11:02:15;;;;;;;10.18;4.38;;;;;;;19.45;51.08;102050.13;5039339;28;20029;-70
2023/09/24 11:04:41;;;;;;;7.78;3.65;;;;;;;19.34;51.02;102050.06;5057232;28;20048;-70
2023/09/24 11:07:10;;;;;;;15.85;3.72;;;;;;;19.40;51.09;102071.84;5021400;28;20045;-70
2023/09/24 11:09:36;;;;;;;11.43;4.20;;;;;;;19.35;51.05;102041.66;5056454;28;20057;-70
2023/09/24 11:12:08;;;;;;;8.52;3.75;;;;;;;19.69;51.00;102066.69;5061623;28;20024;-70
2023/09/24 11:14:33;;;;;;;7.05;3.40;;;;;;;19.53;50.56;102068.09;5070711;28;20077;-70
2023/09/24 11:16:59;;;;;;;8.38;3.83;;;;;;;19.68;50.09;102084.97;5074396;28;20020;-70
2023/09/24 11:19:47;;;;;;;11.20;4.32;;;;;;;19.68;50.08;102084.97;5073591;28;20115;-70
2023/09/24 11:22:16;;;;;;;8.32;3.10;;;;;;;19.60;50.27;102089.84;5076444;28;20013;-70
2023/09/24 11:24:42;;;;;;;8.73;3.80;;;;;;;19.53;50.28;102081.75;5079969;28;20028;-69
2023/09/24 11:27:07;;;;;;;7.80;3.50;;;;;;;19.58;50.54;102092.81;5057252;28;20480;-71